Time;durP1;ratioP1;P1;durP2;ratioP2;P2;SDS_P1;SDS_P2;PMS_P1;PMS_P2;Temp;Humidity;BMP_temperature;BMP_pressure;BME280_temperature;BME280_humidity;BME280_pressure;Samples;Min_cycle;Max_cycle;Signal;HPM_P1;HPM_P2
2021/07/25 04:01:29;;;;;;;;;;;17.60;99.90;;;;;;5;36053909;39063018;-85
2021/07/25 04:04:39;;;;;;;;;;;17.70;99.90;;;;;;5;36026967;39030554;-85
2021/07/25 04:07:52;;;;;;;;;;;17.70;99.90;;;;;;5;36019817;39021510;-85
2021/07/25 04:11:04;;;;;;;;;;;17.60;99.90;;;;;;5;36020848;39022272;-86
2021/07/25 04:14:17;;;;;;;;;;;17.60;99.90;;;;;;5;36017462;39021148;-86
2021/07/25 04:17:28;;;;;;;;;;;17.50;99.90;;;;;;5;36018770;39021227;-86
2021/07/25 04:20:41;;;;;;;;;;;17.50;99.90;;;;;;5;36019359;39021283;-86
2021/07/25 04:23:53;;;;;;;;;;;17.40;99.90;;;;;;5;36017920;39020494;-86
2021/07/25 04:27:08;;;;;;;;;;;17.40;99.90;;;;;;5;36019061;39770731;-87
2021/07/25 04:30:18;;;;;;;;;;;17.50;99.90;;;;;;5;36018505;39021708;-86
2021/07/25 04:33:32;;;;;;;;;;;17.50;99.90;;;;;;5;36018195;39019487;-86
2021/07/25 04:36:45;;;;;;;;;;;17.60;99.90;;;;;;5;36018040;39021458;-86
2021/07/25 04:39:57;;;;;;;;;;;17.80;99.90;;;;;;5;36018664;39021125;-86
2021/07/25 04:43:11;;;;;;;;;;;17.80;99.90;;;;;;5;36016712;39021926;-86
2021/07/25 04:46:28;;;;;;;;;;;17.90;99.90;;;;;;5;36017416;39020764;-86
2021/07/25 04:49:59;;;;;;;;;;;17.90;99.90;;;;;;5;36019466;39019852;-87
2021/07/25 04:53:21;;;;;;;;;;;17.90;99.90;;;;;;5;36017460;39021441;-87
2021/07/25 04:56:32;;;;;;;;;;;17.90;99.90;;;;;;5;36018106;39021910;-87
2021/07/25 04:59:48;;;;;;;;;;;17.90;99.90;;;;;;5;36018049;39771338;-86
2021/07/25 05:03:03;;;;;;;;;;;18.00;99.90;;;;;;5;36018336;39022696;-86
2021/07/25 05:06:16;;;;;;;;;;;17.90;99.90;;;;;;5;36017959;39021695;-85
2021/07/25 05:09:26;;;;;;;;;;;17.90;99.90;;;;;;5;36019146;39022585;-86
2021/07/25 05:12:44;;;;;;;;;;;17.90;99.90;;;;;;5;36017055;39023457;-86
2021/07/25 05:15:56;;;;;;;;;;;18.10;99.90;;;;;;5;36018437;39021051;-87
2021/07/25 05:19:15;;;;;;;;;;;18.20;99.90;;;;;;5;36017170;39020735;-85
2021/07/25 05:22:39;;;;;;;;;;;18.20;99.90;;;;;;5;36017738;39021735;-84
2021/07/25 05:25:53;;;;;;;;;;;18.00;99.90;;;;;;5;36018939;39022453;-88
2021/07/25 05:29:07;;;;;;;;;;;18.10;99.90;;;;;;5;36019690;39022916;-85
2021/07/25 05:32:21;;;;;;;;;;;18.20;99.90;;;;;;5;36016752;39770163;-86
2021/07/25 05:35:30;;;;;;;;;;;18.20;99.90;;;;;;5;36020102;39020928;-86
2021/07/25 05:38:43;;;;;;;;;;;18.30;99.90;;;;;;5;36018197;39020971;-84
2021/07/25 05:41:56;;;;;;;;;;;18.20;99.90;;;;;;5;36019346;39021003;-87
2021/07/25 05:45:09;;;;;;;;;;;18.20;99.90;;;;;;5;36017734;39020948;-86
2021/07/25 05:48:19;;;;;;;;;;;18.30;99.90;;;;;;5;36018790;39021836;-85
2021/07/25 05:51:32;;;;;;;;;;;18.40;99.90;;;;;;5;36017381;39020529;-87
2021/07/25 05:54:45;;;;;;;;;;;18.50;99.90;;;;;;5;36017925;39020246;-87
2021/07/25 05:57:58;;;;;;;;;;;18.60;99.90;;;;;;5;36019154;39020702;-85
2021/07/25 06:01:07;;;;;;;;;;;18.80;99.90;;;;;;5;36019064;39021750;-87
2021/07/25 06:04:21;;;;;;;;;;;18.80;99.90;;;;;;5;36019417;39770115;-84
2021/07/25 06:07:34;;;;;;;;;;;18.80;99.90;;;;;;5;36019645;39020652;-86
2021/07/25 06:10:47;;;;;;;;;;;18.80;99.90;;;;;;5;36019713;39021153;-86
2021/07/25 06:13:57;;;;;;;;;;;18.80;99.90;;;;;;5;36020118;39020895;-88
2021/07/25 06:17:09;;;;;;;;;;;18.80;99.90;;;;;;5;36017728;39021910;-85
2021/07/25 06:20:22;;;;;;;;;;;18.90;99.90;;;;;;5;36018751;39020924;-88
2021/07/25 06:23:35;;;;;;;;;;;19.20;99.90;;;;;;5;36018772;39020918;-87
2021/07/25 06:26:45;;;;;;;;;;;19.20;99.90;;;;;;5;36020096;39022530;-87
2021/07/25 06:29:57;;;;;;;;;;;19.30;99.90;;;;;;5;36018358;39021337;-86
2021/07/25 06:33:10;;;;;;;;;;;19.40;99.90;;;;;;5;36018469;39021405;-86
2021/07/25 06:36:25;;;;;;;;;;;19.60;99.90;;;;;;5;36019010;39770736;-85
2021/07/25 06:39:34;;;;;;;;;;;19.70;99.90;;;;;;5;36019118;39020891;-85
2021/07/25 06:42:47;;;;;;;;;;;19.80;99.90;;;;;;5;36019165;39020340;-85
2021/07/25 06:46:00;;;;;;;;;;;19.90;99.90;;;;;;5;36019259;39020170;-88
2021/07/25 06:49:14;;;;;;;;;;;19.70;99.90;;;;;;5;36019330;39021662;-87
2021/07/25 06:52:23;;;;;;;;;;;19.70;99.90;;;;;;5;36019178;39021412;-86
2021/07/25 06:55:36;;;;;;;;;;;19.90;99.90;;;;;;5;36018343;39020647;-86
2021/07/25 06:58:49;;;;;;;;;;;20.00;99.90;;;;;;5;36018769;39020021;-86
2021/07/25 07:02:01;;;;;;;;;;;20.00;99.90;;;;;;5;36018245;39021602;-86
2021/07/25 07:05:11;;;;;;;;;;;19.80;99.90;;;;;;5;36019240;39020585;-86
2021/07/25 07:08:25;;;;;;;;;;;19.70;99.90;;;;;;5;36018469;39770799;-86
2021/07/25 07:11:38;;;;;;;;;;;19.80;99.90;;;;;;5;36018366;39019984;-86
2021/07/25 07:14:51;;;;;;;;;;;19.80;99.90;;;;;;5;36019925;39021204;-84
2021/07/25 07:18:00;;;;;;;;;;;19.70;99.90;;;;;;5;36017766;39019648;-85
2021/07/25 07:21:13;;;;;;;;;;;19.90;99.90;;;;;;5;36018082;39021217;-84
2021/07/25 07:24:25;;;;;;;;;;;20.10;99.90;;;;;;5;36017900;39019891;-85
2021/07/25 07:27:38;;;;;;;;;;;20.70;99.90;;;;;;5;36017522;39020975;-88
2021/07/25 07:30:48;;;;;;;;;;;21.30;99.90;;;;;;5;36018515;39019603;-87
2021/07/25 07:34:01;;;;;;;;;;;21.40;99.90;;;;;;5;36016779;39020624;-87
2021/07/25 07:37:13;;;;;;;;;;;21.50;99.90;;;;;;5;36018378;39020527;-87
2021/07/25 07:40:27;;;;;;;;;;;21.70;99.90;;;;;;5;36019538;39770901;-89
2021/07/25 07:43:38;;;;;;;;;;;21.80;99.90;;;;;;5;36016215;39018793;-89
2021/07/25 07:46:50;;;;;;;;;;;21.80;99.90;;;;;;5;36016160;39017866;-88
2021/07/25 07:50:03;;;;;;;;;;;22.00;99.90;;;;;;5;36019269;39024085;-86
2021/07/25 07:53:18;;;;;;;;;;;22.20;99.90;;;;;;5;36023034;39025583;-87
2021/07/25 08:00:57;;;;;;;14.88;11.85;;;22.70;99.90;;;;;;174942;28;39022082;-85
2021/07/25 08:04:15;;;;;;;;;;;23.30;99.90;;;;;;5;39021833;39771258;-84
2021/07/25 08:07:27;;;;;;;;;;;23.30;99.90;;;;;;5;36016008;39018151;-83
2021/07/25 08:10:39;;;;;;;;;;;23.30;99.90;;;;;;5;36015622;39020777;-85
2021/07/25 08:13:50;;;;;;;;;;;23.50;99.90;;;;;;5;36017045;39021304;-85
2021/07/25 08:16:59;;;;;;;;;;;23.60;99.90;;;;;;5;36019461;39021012;-85
2021/07/25 08:20:11;;;;;;;;;;;23.70;99.90;;;;;;5;36019067;39021302;-85
2021/07/25 08:23:23;;;;;;;;;;;23.70;99.90;;;;;;5;36017369;39021808;-84
2021/07/25 08:26:35;;;;;;;;;;;23.60;99.90;;;;;;5;36018963;39021471;-86
2021/07/25 08:29:44;;;;;;;;;;;23.40;99.90;;;;;;5;36018490;39020503;-84
2021/07/25 08:32:56;;;;;;;;;;;23.30;99.90;;;;;;5;36018510;39019576;-85
2021/07/25 08:36:08;;;;;;;;;;;23.10;99.90;;;;;;5;36018630;39021151;-85
2021/07/25 08:39:19;;;;;;;;;;;22.80;99.90;;;;;;5;36018881;39020919;-85
2021/07/25 08:42:32;;;;;;;;;;;22.70;99.90;;;;;;5;36018608;39019780;-84
2021/07/25 08:45:44;;;;;;;;;;;22.80;99.90;;;;;;5;36018863;39019211;-85
2021/07/25 08:48:58;;;;;;;;;;;22.80;99.90;;;;;;5;36019501;39020399;-85
2021/07/25 08:52:15;;;;;;;;;;;22.60;99.90;;;;;;5;36018449;39021451;-85
2021/07/25 08:55:24;;;;;;;;;;;22.50;99.90;;;;;;5;36018697;39021420;-85
2021/07/25 08:58:38;;;;;;;;;;;22.40;99.90;;;;;;5;36018992;39019009;-85
2021/07/25 09:01:50;;;;;;;;;;;22.50;99.90;;;;;;5;36017781;39021163;-85
2021/07/25 09:05:02;;;;;;;;;;;22.90;99.90;;;;;;5;36018932;39021360;-86
2021/07/25 09:08:11;;;;;;;;;;;23.60;99.90;;;;;;5;36019602;39020534;-84
2021/07/25 09:11:23;;;;;;;;;;;24.50;99.90;;;;;;5;36019185;39021549;-85
2021/07/25 09:14:36;;;;;;;;;;;25.60;99.90;;;;;;5;36018994;39021997;-85
2021/07/25 09:17:48;;;;;;;;;;;26.60;98.40;;;;;;5;36018527;39020044;-84
2021/07/25 09:20:57;;;;;;;;;;;27.20;91.60;;;;;;5;36018715;39020900;-84
2021/07/25 09:24:15;;;;;;;;;;;27.10;93.50;;;;;;5;36016017;39020458;-84
2021/07/25 09:27:27;;;;;;;;;;;27.30;93.30;;;;;;5;36015778;39020070;-84
2021/07/25 09:30:38;;;;;;;;;;;27.30;91.20;;;;;;5;36016841;39019840;-84
2021/07/25 09:33:47;;;;;;;;;;;27.10;88.60;;;;;;5;36019001;39019689;-85
2021/07/25 09:37:13;;;;;;;;;;;26.70;90.10;;;;;;5;36017983;39021155;-85
2021/07/25 09:40:26;;;;;;;;;;;26.30;87.70;;;;;;5;36017757;39020059;-84
2021/07/25 09:43:37;;;;;;;;;;;25.90;90.60;;;;;;5;36018064;39020650;-85
2021/07/25 09:46:49;;;;;;;;;;;25.60;90.20;;;;;;5;36019728;39019890;-85
2021/07/25 09:50:01;;;;;;;;;;;25.60;91.00;;;;;;5;36018105;39020670;-85
2021/07/25 09:53:13;;;;;;;;;;;25.50;91.00;;;;;;5;36018413;39020468;-84
2021/07/25 09:56:27;;;;;;;;;;;25.60;91.00;;;;;;5;36018564;39019819;-84
2021/07/25 09:59:36;;;;;;;;;;;25.60;90.70;;;;;;5;36017959;39019852;-84
2021/07/25 10:02:49;;;;;;;;;;;25.70;89.70;;;;;;5;36017546;39020246;-85
2021/07/25 10:06:19;;;;;;;;;;;26.00;89.00;;;;;;5;36019537;39020036;-85
2021/07/25 10:09:30;;;;;;;;;;;26.30;89.80;;;;;;5;36017919;39020843;-85
2021/07/25 10:12:40;;;;;;;;;;;26.60;88.90;;;;;;5;36018864;39019691;-85
2021/07/25 10:15:59;;;;;;;;;;;26.80;90.10;;;;;;5;36019692;39020708;-85
2021/07/25 10:19:11;;;;;;;;;;;26.90;85.60;;;;;;5;36019492;39019909;-85
2021/07/25 10:22:22;;;;;;;;;;;27.10;85.90;;;;;;5;36019436;39019970;-85
2021/07/25 10:25:31;;;;;;;;;;;27.20;85.20;;;;;;5;36019709;39020112;-85
2021/07/25 10:28:43;;;;;;;;;;;27.00;84.70;;;;;;5;36018147;39020685;-86
2021/07/25 10:31:55;;;;;;;;;;;26.80;87.90;;;;;;5;36017347;39019888;-85
2021/07/25 10:35:07;;;;;;;;;;;26.70;86.70;;;;;;5;36016289;39019948;-85
2021/07/25 10:38:16;;;;;;;;;;;26.20;86.60;;;;;;5;36017674;39021397;-85
2021/07/25 10:41:29;;;;;;;;;;;26.30;88.40;;;;;;5;36019628;39019799;-86
2021/07/25 10:44:42;;;;;;;;;;;26.30;87.00;;;;;;5;36016728;39020702;-84
2021/07/25 10:48:11;;;;;;;;;;;26.40;87.40;;;;;;5;36017204;39019512;-85
2021/07/25 10:51:21;;;;;;;;;;;27.00;86.00;;;;;;5;36016925;39019224;-85
2021/07/25 10:58:04;;;;;;;;;;;28.70;82.10;;;;;;5;36018980;39034253;-86
2021/07/25 11:01:35;;;;;;;;;;;28.70;78.50;;;;;;5;36019675;39023535;-85
2021/07/25 11:04:47;;;;;;;;;;;28.20;76.40;;;;;;5;36018425;39020822;-85
2021/07/25 11:08:00;;;;;;;;;;;28.50;75.40;;;;;;5;36014498;39019356;-86
2021/07/25 11:11:34;;;;;;;;;;;29.60;72.80;;;;;;5;36013248;39016649;-86
2021/07/25 11:15:02;;;;;;;;;;;30.20;71.90;;;;;;5;36013644;39015010;-86
2021/07/25 11:18:15;;;;;;;;;;;31.30;68.70;;;;;;5;36014241;39017700;-86
2021/07/25 11:21:36;;;;;;;;;;;32.60;66.10;;;;;;5;36018480;39020749;-86
2021/07/25 11:24:48;;;;;;;;;;;33.90;62.40;;;;;;5;36018376;39021330;-88
2021/07/25 11:27:59;;;;;;;;;;;34.60;57.20;;;;;;5;36020369;39021179;-87
2021/07/25 11:31:09;;;;;;;;;;;34.70;58.30;;;;;;5;36019361;39020778;-86
2021/07/25 11:34:24;;;;;;;;;;;34.70;55.80;;;;;;5;36017740;39020360;-86
2021/07/25 11:37:39;;;;;;;;;;;34.40;56.80;;;;;;5;36018386;39020933;-86
2021/07/25 11:40:53;;;;;;;;;;;35.00;55.10;;;;;;5;36018303;39021467;-86
2021/07/25 11:44:02;;;;;;;;;;;36.00;52.40;;;;;;5;36016247;39018874;-86
2021/07/25 11:47:14;;;;;;;;;;;35.60;51.70;;;;;;5;36018755;39020756;-86
2021/07/25 11:50:43;;;;;;;;;;;35.50;53.20;;;;;;5;36018329;39021938;-86
2021/07/25 11:53:54;;;;;;;;;;;37.00;51.50;;;;;;5;36016815;39021421;-86
2021/07/25 11:57:04;;;;;;;;;;;37.10;50.90;;;;;;5;36019452;39020500;-86
2021/07/25 12:00:18;;;;;;;;;;;35.60;51.10;;;;;;5;36018712;39020264;-86
2021/07/25 12:03:30;;;;;;;;;;;34.10;54.00;;;;;;5;36018691;39021049;-86
2021/07/25 12:06:41;;;;;;;;;;;33.00;56.10;;;;;;5;36016923;39020792;-85
2021/07/25 12:09:51;;;;;;;;;;;30.80;60.80;;;;;;5;36020699;39020718;-87
2021/07/25 12:13:03;;;;;;;;;;;29.90;63.50;;;;;;5;36019741;39021205;-87
2021/07/25 12:16:15;;;;;;;;;;;29.10;66.90;;;;;;5;36017529;39021115;-87
2021/07/25 12:19:32;;;;;;;;;;;28.30;67.90;;;;;;5;36018860;39020891;-87
2021/07/25 12:23:07;;;;;;;;;;;27.50;70.60;;;;;;5;36018604;39021529;-87
2021/07/25 12:26:20;;;;;;;;;;;26.70;72.50;;;;;;5;36017213;39020964;-87
2021/07/25 12:29:34;;;;;;;;;;;26.30;75.50;;;;;;5;36017368;39020004;-87
2021/07/25 12:32:46;;;;;;;;;;;25.80;77.40;;;;;;5;36018710;39019504;-87
2021/07/25 12:35:55;;;;;;;;;;;25.30;78.70;;;;;;5;36018314;39020734;-87
2021/07/25 12:39:17;;;;;;;;;;;24.80;81.60;;;;;;5;36018056;39019645;-87
2021/07/25 12:42:35;;;;;;;;;;;24.30;84.00;;;;;;5;36019574;39021735;-87
2021/07/25 12:45:47;;;;;;;;;;;23.90;86.90;;;;;;5;36018210;39020040;-87
2021/07/25 12:49:02;;;;;;;;;;;23.60;88.60;;;;;;5;36019496;39020567;-87
2021/07/25 12:52:20;;;;;;;;;;;23.40;90.20;;;;;;5;36019235;39019772;-87
2021/07/25 12:55:32;;;;;;;;;;;23.30;90.40;;;;;;5;36018836;39020783;-87
2021/07/25 12:58:45;;;;;;;;;;;22.40;83.90;;;;;;5;36017464;39020972;-87
2021/07/25 13:05:24;;;;;;;;;;;20.50;91.30;;;;;;5;36018846;39023208;-87
2021/07/25 13:08:36;;;;;;;;;;;20.10;92.30;;;;;;5;36019049;39021481;-88
2021/07/25 13:11:55;;;;;;;;;;;19.60;93.00;;;;;;5;36017475;39020732;-87
2021/07/25 13:15:04;;;;;;;;;;;19.30;93.60;;;;;;5;36019431;39020425;-87
2021/07/25 13:18:16;;;;;;;;;;;19.10;94.70;;;;;;5;36017944;39021896;-88
2021/07/25 13:21:28;;;;;;;;;;;18.90;95.90;;;;;;5;36018407;39020000;-88
2021/07/25 13:24:40;;;;;;;;;;;18.90;97.90;;;;;;5;36018475;39020653;-88
2021/07/25 13:27:50;;;;;;;;;;;18.70;99.80;;;;;;5;36016322;39019016;-88
2021/07/25 13:31:03;;;;;;;;;;;19.10;99.90;;;;;;5;36016588;39019628;-88
2021/07/25 13:34:16;;;;;;;;;;;19.80;99.90;;;;;;5;36017598;39020972;-88
2021/07/25 13:37:30;;;;;;;;;;;21.30;95.20;;;;;;5;36019370;39770846;-89
2021/07/25 13:40:40;;;;;;;;;;;23.50;92.40;;;;;;5;36020380;39021034;-88
2021/07/25 13:43:59;;;;;;;;;;;25.20;81.80;;;;;;5;36019664;39022020;-88
2021/07/25 13:47:11;;;;;;;;;;;25.40;79.40;;;;;;5;36018916;39020652;-88
2021/07/25 13:50:24;;;;;;;;;;;25.90;77.70;;;;;;5;36019130;39021239;-88
2021/07/25 13:53:35;;;;;;;;;;;26.10;76.80;;;;;;5;36018861;39020794;-88
2021/07/25 13:56:49;;;;;;;;;;;26.00;74.10;;;;;;5;36018211;39019599;-88
2021/07/25 14:00:01;;;;;;;;;;;26.30;75.40;;;;;;5;36020410;39021005;-88
2021/07/25 14:03:14;;;;;;;;;;;26.90;71.90;;;;;;5;36018856;39022344;-88
2021/07/25 14:06:24;;;;;;;;;;;27.40;70.50;;;;;;5;36020040;39022181;-89
2021/07/25 14:09:38;;;;;;;;;;;27.70;67.20;;;;;;5;36018648;39771027;-89
2021/07/25 14:12:50;;;;;;;;;;;27.70;66.90;;;;;;5;36018047;39020691;-88
2021/07/25 14:16:03;;;;;;;;;;;27.00;67.60;;;;;;5;36018447;39019861;-88
2021/07/25 14:19:16;;;;;;;;;;;26.80;66.60;;;;;;5;36018304;39021613;-88
2021/07/25 14:22:29;;;;;;;;;;;26.60;66.60;;;;;;5;36020068;39022649;-88
2021/07/25 14:25:45;;;;;;;;;;;26.10;68.50;;;;;;5;36019031;39021082;-88
2021/07/25 14:28:58;;;;;;;;;;;25.80;70.30;;;;;;5;36018529;39021090;-89
2021/07/25 14:32:07;;;;;;;;;;;25.40;70.70;;;;;;5;36019554;39021751;-88
2021/07/25 14:35:20;;;;;;;;;;;25.00;71.00;;;;;;5;36019015;39021360;-88
2021/07/25 14:38:33;;;;;;;;;;;24.80;72.60;;;;;;5;36018237;39021323;-88
2021/07/25 14:41:48;;;;;;;;;;;24.60;72.60;;;;;;5;36020338;39770605;-88
2021/07/25 14:44:58;;;;;;;;;;;24.30;73.90;;;;;;5;36017740;39020386;-88
2021/07/25 14:48:10;;;;;;;;;;;24.20;75.10;;;;;;5;36018112;39020922;-88
2021/07/25 14:51:23;;;;;;;;;;;24.10;74.20;;;;;;5;36016680;39018012;-88
2021/07/25 14:54:36;;;;;;;;;;;24.00;75.80;;;;;;5;36018390;39020969;-88
2021/07/25 14:57:46;;;;;;;;;;;24.00;74.90;;;;;;5;36018339;39022572;-88
2021/07/25 15:00:58;;;;;;;;;;;24.00;75.30;;;;;;5;36019750;39021456;-87
2021/07/25 15:04:11;;;;;;;;;;;23.90;76.00;;;;;;5;36023538;39021997;-87
2021/07/25 15:07:24;;;;;;;;;;;23.80;77.90;;;;;;5;36020390;39022203;-87
2021/07/25 15:10:36;;;;;;;;;;;23.60;77.10;;;;;;5;36019417;39021839;-88
2021/07/25 15:13:51;;;;;;;;;;;23.30;77.70;;;;;;5;36018107;39771297;-88
2021/07/25 15:17:03;;;;;;;;;;;23.20;79.10;;;;;;5;36017286;39020691;-88
2021/07/25 15:20:16;;;;;;;;;;;23.00;78.60;;;;;;5;36015297;39016390;-88
2021/07/25 15:23:26;;;;;;;;;;;23.00;81.80;;;;;;5;36013213;39015460;-88
2021/07/25 15:26:39;;;;;;;;;;;23.10;80.00;;;;;;5;36018726;39020695;-87
2021/07/25 15:29:52;;;;;;;;;;;23.40;80.50;;;;;;5;36018248;39021343;-88
2021/07/25 15:33:05;;;;;;;;;;;23.60;78.90;;;;;;5;36020009;39020658;-87
2021/07/25 15:36:15;;;;;;;;;;;23.80;76.80;;;;;;5;36019522;39023507;-87
2021/07/25 15:39:28;;;;;;;;;;;23.80;76.70;;;;;;5;36017866;39021515;-88
2021/07/25 15:42:40;;;;;;;;;;;23.70;77.40;;;;;;5;36017526;39021246;-87
2021/07/25 15:46:08;;;;;;;;;;;23.50;77.80;;;;;;5;36018979;39770840;-88
2021/07/25 15:49:18;;;;;;;;;;;23.00;77.70;;;;;;5;36020142;39020945;-88
2021/07/25 15:52:31;;;;;;;;;;;22.70;78.30;;;;;;5;36018854;39021734;-88
2021/07/25 15:55:44;;;;;;;;;;;22.90;80.90;;;;;;5;36019095;39022496;-88
2021/07/25 15:58:56;;;;;;;;;;;23.10;79.20;;;;;;5;36020458;39022405;-88
2021/07/25 16:02:06;;;;;;;;;;;23.10;77.90;;;;;;5;36019365;39022479;-88
2021/07/25 16:05:19;;;;;;;;;;;23.00;78.30;;;;;;5;36018533;39020342;-89
2021/07/25 16:08:31;;;;;;;;;;;23.10;78.30;;;;;;5;36019368;39022723;-87
2021/07/25 16:11:44;;;;;;;;;;;23.00;79.70;;;;;;5;36019025;39022907;-86
2021/07/25 16:14:54;;;;;;;;;;;23.10;78.60;;;;;;5;36018132;39020498;-87
2021/07/25 16:18:08;;;;;;;;;;;22.90;77.70;;;;;;5;36018226;39770742;-86
2021/07/25 16:21:24;;;;;;;;;;;22.50;78.50;;;;;;5;36017968;39021717;-87
2021/07/25 16:24:37;;;;;;;;;;;22.40;82.10;;;;;;5;36019104;39020726;-87
2021/07/25 16:27:47;;;;;;;;;;;22.20;82.60;;;;;;5;36019507;39020953;-86
2021/07/25 16:31:04;;;;;;;;;;;22.20;82.30;;;;;;5;36018809;39020491;-87
2021/07/25 16:34:17;;;;;;;;;;;22.00;83.80;;;;;;5;36017706;39022324;-86
2021/07/25 16:37:31;;;;;;;;;;;21.90;82.90;;;;;;5;36017496;39021854;-86
2021/07/25 16:40:41;;;;;;;;;;;21.70;85.00;;;;;;5;36017654;39021194;-86
2021/07/25 16:43:54;;;;;;;;;;;21.40;84.80;;;;;;5;36017411;39021376;-87
2021/07/25 16:47:07;;;;;;;;;;;21.10;86.80;;;;;;5;36017805;39020675;-86
2021/07/25 16:50:21;;;;;;;;;;;20.90;88.80;;;;;;5;36017218;39770059;-87
2021/07/25 16:53:31;;;;;;;;;;;20.70;89.90;;;;;;5;36017297;39021176;-87
2021/07/25 16:56:44;;;;;;;;;;;20.70;90.80;;;;;;5;36018329;39021835;-87
2021/07/25 16:59:58;;;;;;;;;;;20.70;90.80;;;;;;5;36017469;39020813;-87
2021/07/25 17:03:11;;;;;;;;;;;20.70;91.20;;;;;;5;36019115;39021394;-86
2021/07/25 17:06:21;;;;;;;;;;;20.80;92.50;;;;;;5;36017614;39019908;-87
2021/07/25 17:09:34;;;;;;;;;;;20.90;93.00;;;;;;5;36018220;39020669;-86
2021/07/25 17:12:47;;;;;;;;;;;21.00;93.20;;;;;;5;36018535;39020402;-86
2021/07/25 17:16:00;;;;;;;;;;;20.90;92.60;;;;;;5;36017995;39020930;-88
2021/07/25 17:19:10;;;;;;;;;;;20.80;92.70;;;;;;5;36018447;39021579;-86
2021/07/25 17:22:24;;;;;;;;;;;20.70;92.90;;;;;;5;36018098;39770942;-86
2021/07/25 17:25:37;;;;;;;;;;;20.60;93.70;;;;;;5;36018637;39021535;-88
2021/07/25 17:28:49;;;;;;;;;;;20.60;93.70;;;;;;5;36018149;39019820;-87
2021/07/25 17:31:59;;;;;;;;;;;20.60;94.30;;;;;;5;36018968;39022811;-88
2021/07/25 17:35:12;;;;;;;;;;;20.50;94.40;;;;;;5;36016770;39019905;-88
2021/07/25 17:38:25;;;;;;;;;;;20.40;94.70;;;;;;5;36017185;39020497;-87
2021/07/25 17:41:37;;;;;;;;;;;20.30;94.30;;;;;;5;36016748;39020297;-88
2021/07/25 17:44:48;;;;;;;;;;;20.20;94.90;;;;;;5;36016908;39020951;-87
2021/07/25 17:48:01;;;;;;;;;;;20.10;95.40;;;;;;5;36018649;39020853;-87
2021/07/25 17:51:17;;;;;;;;;;;20.10;96.40;;;;;;5;36017011;39021086;-87
2021/07/25 17:54:32;;;;;;;;;;;20.00;96.50;;;;;;5;36018774;39769030;-87
2021/07/25 17:57:42;;;;;;;;;;;20.00;97.20;;;;;;5;36018837;39021601;-87
2021/07/25 18:00:54;;;;;;;;;;;20.10;97.60;;;;;;5;36017371;39019794;-86
2021/07/25 18:04:07;;;;;;;;;;;20.10;97.00;;;;;;5;36016852;39019229;-86
2021/07/25 18:07:20;;;;;;;;;;;20.00;97.10;;;;;;5;36018142;39020933;-86
2021/07/25 18:10:29;;;;;;;;;;;19.70;97.50;;;;;;5;36017000;39020717;-87
2021/07/25 18:13:42;;;;;;;;;;;19.60;99.40;;;;;;5;36016906;39020881;-87
2021/07/25 18:16:55;;;;;;;;;;;19.60;99.00;;;;;;5;36018779;39021017;-86
2021/07/25 18:20:08;;;;;;;;;;;19.50;99.70;;;;;;5;36017310;39019552;-88
2021/07/25 18:23:17;;;;;;;;;;;19.40;99.90;;;;;;5;36016857;39017317;-86
2021/07/25 18:26:33;;;;;;;;;;;19.30;99.90;;;;;;5;36016532;39766126;-88
2021/07/25 18:29:45;;;;;;;;;;;19.30;99.90;;;;;;5;36017744;39020890;-87
2021/07/25 18:32:58;;;;;;;;;;;19.30;99.90;;;;;;5;36018878;39019926;-87
2021/07/25 18:36:08;;;;;;;;;;;19.30;99.90;;;;;;5;36017864;39021323;-87
2021/07/25 18:39:21;;;;;;;;;;;19.30;99.90;;;;;;5;36016495;39019121;-88
2021/07/25 18:42:33;;;;;;;;;;;19.20;99.90;;;;;;5;36017098;39021760;-87
2021/07/25 18:45:46;;;;;;;;;;;19.30;99.90;;;;;;5;36016655;39019884;-86
2021/07/25 18:48:56;;;;;;;;;;;19.20;99.90;;;;;;5;36017705;39021326;-88
2021/07/25 18:52:08;;;;;;;;;;;19.20;99.90;;;;;;5;36018268;39020329;-88
2021/07/25 18:55:21;;;;;;;;;;;19.10;99.90;;;;;;5;36019374;39020611;-87
2021/07/25 18:58:36;;;;;;;;;;;19.00;99.90;;;;;;5;36017354;39769282;-86
2021/07/25 19:01:45;;;;;;;;;;;19.00;99.90;;;;;;5;36019259;39022532;-88
2021/07/25 19:04:58;;;;;;;;;;;18.90;99.90;;;;;;5;36018577;39020089;-87
2021/07/25 19:08:11;;;;;;;;;;;18.80;99.90;;;;;;5;36018249;39020766;-86
2021/07/25 19:11:26;;;;;;;;;;;18.70;99.90;;;;;;5;36018967;39021586;-87
2021/07/25 19:14:36;;;;;;;;;;;18.60;99.90;;;;;;5;36017207;39021168;-87
2021/07/25 19:17:49;;;;;;;;;;;18.60;99.90;;;;;;5;36017797;39021131;-87
2021/07/25 19:21:01;;;;;;;;;;;18.50;99.90;;;;;;5;36017736;39020948;-87
2021/07/25 19:24:14;;;;;;;;;;;18.40;99.90;;;;;;5;36018627;39021042;-87
2021/07/25 19:27:24;;;;;;;;;;;18.40;99.90;;;;;;5;36018858;39021505;-87
2021/07/25 19:30:38;;;;;;;;;;;18.40;99.90;;;;;;5;36017587;39769652;-86
2021/07/25 19:33:51;;;;;;;;;;;18.40;99.90;;;;;;5;36017601;39022279;-86
2021/07/25 19:37:04;;;;;;;;;;;18.40;99.90;;;;;;5;36019636;39021339;-87
2021/07/25 19:40:14;;;;;;;;;;;18.40;99.90;;;;;;5;36018807;39020581;-87
2021/07/25 19:43:26;;;;;;;;;;;18.50;99.90;;;;;;5;36017379;39023024;-87
2021/07/25 19:46:39;;;;;;;;;;;18.50;99.90;;;;;;5;36019063;39021116;-87
2021/07/25 19:49:52;;;;;;;;;;;18.50;99.90;;;;;;5;36020399;39020465;-86
2021/07/25 19:53:01;;;;;;;;;;;18.40;99.90;;;;;;5;36019912;39020492;-86
2021/07/25 19:56:14;;;;;;;;;;;18.30;99.90;;;;;;5;36021332;39020992;-88
2021/07/25 19:59:27;;;;;;;;;;;18.30;99.90;;;;;;5;36019258;39021167;-88
2021/07/25 20:02:41;;;;;;;;;;;18.20;99.90;;;;;;5;36018643;39770309;-87
2021/07/25 20:05:51;;;;;;;;;;;18.20;99.90;;;;;;5;36017752;39019841;-88
2021/07/25 20:09:04;;;;;;;;;;;18.20;99.90;;;;;;5;36018061;39020918;-86
2021/07/25 20:12:18;;;;;;;;;;;18.10;99.90;;;;;;5;36018474;39021417;-87
2021/07/25 20:15:30;;;;;;;;;;;18.10;99.90;;;;;;5;36018119;39019793;-87
2021/07/25 20:18:41;;;;;;;;;;;18.10;99.90;;;;;;5;36018799;39021108;-87
2021/07/25 20:21:53;;;;;;;;;;;18.10;99.90;;;;;;5;36018459;39020828;-87
2021/07/25 20:25:06;;;;;;;;;;;18.10;99.90;;;;;;5;36018837;39021285;-86
2021/07/25 20:28:19;;;;;;;;;;;18.10;99.90;;;;;;5;36018874;39021572;-86
2021/07/25 20:31:29;;;;;;;;;;;18.20;99.90;;;;;;5;36018309;39021492;-86
2021/07/25 20:34:43;;;;;;;;;;;18.10;99.90;;;;;;5;36018921;39773193;-86
2021/07/25 20:37:56;;;;;;;;;;;18.10;99.90;;;;;;5;36018042;39020683;-86
2021/07/25 20:41:10;;;;;;;;;;;18.20;99.90;;;;;;5;36018471;39021324;-86
2021/07/25 20:44:19;;;;;;;;;;;18.20;99.90;;;;;;5;36017959;39021168;-86
2021/07/25 20:47:32;;;;;;;;;;;18.20;99.90;;;;;;5;36020491;39021620;-86
2021/07/25 20:50:46;;;;;;;;;;;18.20;99.90;;;;;;5;36019622;39022137;-86
2021/07/25 20:53:58;;;;;;;;;;;18.10;99.90;;;;;;5;36019070;39020961;-90
2021/07/25 20:57:08;;;;;;;;;;;18.10;99.90;;;;;;5;36019866;39021458;-88
2021/07/25 21:00:22;;;;;;;;;;;18.10;99.90;;;;;;5;36018009;39020337;-87
2021/07/25 21:03:34;;;;;;;;;;;18.20;99.90;;;;;;5;36019821;39021189;-88
2021/07/25 21:06:49;;;;;;;;;;;18.10;99.90;;;;;;5;36019671;39770446;-88
2021/07/25 21:09:58;;;;;;;;;;;18.20;99.90;;;;;;5;36019068;39020198;-89
2021/07/25 21:13:11;;;;;;;;;;;18.10;99.90;;;;;;5;36019802;39021915;-88
2021/07/25 21:16:24;;;;;;;;;;;18.20;99.90;;;;;;5;36018680;39020946;-89
2021/07/25 21:19:37;;;;;;;;;;;18.10;99.90;;;;;;5;36019412;39022149;-91
2021/07/25 21:22:46;;;;;;;;;;;18.00;99.90;;;;;;5;36019861;39022288;-88
2021/07/25 21:25:59;;;;;;;;;;;18.00;99.90;;;;;;5;36018822;39022023;-88
2021/07/25 21:29:12;;;;;;;;;;;17.90;99.90;;;;;;5;36018761;39022147;-88
2021/07/25 21:32:24;;;;;;;;;;;17.90;99.90;;;;;;5;36018527;39021212;-88
2021/07/25 21:35:38;;;;;;;;;;;17.80;99.90;;;;;;5;36016906;39020420;-88
2021/07/25 21:38:52;;;;;;;;;;;17.80;99.90;;;;;;5;36019099;39770704;-89
2021/07/25 21:42:05;;;;;;;;;;;17.70;99.90;;;;;;5;36019712;39022371;-88
2021/07/25 21:45:17;;;;;;;;;;;17.70;99.90;;;;;;5;36018304;39022078;-88
2021/07/25 21:48:27;;;;;;;;;;;17.60;99.90;;;;;;5;36018966;39021370;-88
2021/07/25 21:51:40;;;;;;;;;;;17.60;99.90;;;;;;5;36019115;39021022;-89
2021/07/25 21:54:53;;;;;;;;;;;17.60;99.90;;;;;;5;36015285;39017052;-88
2021/07/25 21:58:06;;;;;;;;;;;17.50;99.90;;;;;;5;36018216;39021051;-88
